createdAt,value
2023-02-15T00:00:41.518Z,58.42
2023-02-15T00:05:43.183Z,60.58
2023-02-15T00:10:44.827Z,60.58
2023-02-15T00:15:46.745Z,60.47
2023-02-15T00:20:48.346Z,53.83
2023-02-15T00:25:50.981Z,61.40
2023-02-15T00:30:52.633Z,52.85
2023-02-15T00:35:59.599Z,56.85
2023-02-15T00:41:03.020Z,53.80
2023-02-15T00:46:05.986Z,55.83
2023-02-15T00:51:07.741Z,50.10
2023-02-15T00:56:09.368Z,53.10
2023-02-15T01:01:13.805Z,55.38
2023-02-15T01:06:16.761Z,59.78
2023-02-15T01:11:24.317Z,63.80
2023-02-15T01:16:28.749Z,55.85
2023-02-15T01:21:30.597Z,51.72
2023-02-15T01:26:32.257Z,52.83
2023-02-15T01:31:34.557Z,54.22
2023-02-15T01:36:36.346Z,51.95
2023-02-15T01:41:38.018Z,53.75
2023-02-15T01:46:44.065Z,52.72
2023-02-15T01:51:47.285Z,56.63
2023-02-15T01:56:49.095Z,48.33
2023-02-15T02:01:53.480Z,51.75
2023-02-15T02:06:55.622Z,52.97
2023-02-15T02:11:57.306Z,53.33
2023-02-15T02:17:11.526Z,54.15
2023-02-15T02:22:13.088Z,52.47
2023-02-15T02:27:24.605Z,47.85
2023-02-15T02:32:29.072Z,57.72
2023-02-15T02:37:52.696Z,48.72
2023-02-15T02:43:02.869Z,46.33
2023-02-15T02:48:14.791Z,51.92
2023-02-15T02:53:16.455Z,41.15
2023-02-15T02:58:34.496Z,47.15
2023-02-15T03:03:42.480Z,45.38
2023-02-15T03:08:47.745Z,51.80
2023-02-15T03:13:50.258Z,50.22
2023-02-15T03:19:28.787Z,42.35
2023-02-15T03:24:37.518Z,43.13
2023-02-15T03:29:40.330Z,38.50
2023-02-15T03:34:42.631Z,41.45
2023-02-15T03:40:19.267Z,39.30
2023-02-15T03:45:27.257Z,43.08
2023-02-15T03:50:50.008Z,40.08
2023-02-15T03:55:55.068Z,38.85
2023-02-15T04:01:18.822Z,35.85
2023-02-15T04:06:20.564Z,33.42
2023-02-15T04:11:22.174Z,37.17
2023-02-15T04:16:24.757Z,38.30
2023-02-15T04:21:46.860Z,38.08
2023-02-15T04:26:49.094Z,36.92
2023-02-15T04:31:51.594Z,38.75
2023-02-15T04:36:53.246Z,40.72
2023-02-15T04:41:54.890Z,37.38
2023-02-15T04:46:56.557Z,39.67
2023-02-15T04:51:58.168Z,36.15
2023-02-15T04:56:59.814Z,43.03
2023-02-15T05:02:02.836Z,44.50
2023-02-15T05:07:04.457Z,34.83
2023-02-15T05:12:06.312Z,45.05
2023-02-15T05:17:07.960Z,37.83
2023-02-15T05:22:09.949Z,37.17
2023-02-15T05:27:31.064Z,36.67
2023-02-15T05:32:33.058Z,34.45
2023-02-15T05:37:34.971Z,36.25
2023-02-15T05:42:36.609Z,31.85
2023-02-15T05:47:38.335Z,34.08
2023-02-15T05:52:39.995Z,32.55
2023-02-15T05:57:41.686Z,31.50
2023-02-15T06:02:43.437Z,34.35
2023-02-15T06:07:45.830Z,30.02
2023-02-15T06:12:47.455Z,27.02
2023-02-15T06:17:49.091Z,32.25
2023-02-15T06:22:51.141Z,28.48
2023-02-15T06:27:52.780Z,29.17
2023-02-15T06:32:54.434Z,33.10
2023-02-15T06:37:56.117Z,32.33
2023-02-15T06:42:57.723Z,29.88
2023-02-15T06:47:59.305Z,28.02
2023-02-15T06:53:00.918Z,31.48
2023-02-15T06:58:02.520Z,28.48
2023-02-15T07:03:04.156Z,25.00
2023-02-15T07:08:05.851Z,24.23
2023-02-15T07:13:07.456Z,26.70
2023-02-15T07:18:10.059Z,25.77
2023-02-15T07:23:11.665Z,25.13
2023-02-15T07:28:13.271Z,26.13
2023-02-15T07:33:23.837Z,24.92
2023-02-15T07:38:27.141Z,22.02
2023-02-15T07:43:30.276Z,23.30
2023-02-15T07:48:32.450Z,24.23
2023-02-15T07:53:34.363Z,26.88
2023-02-15T07:58:54.874Z,24.42
2023-02-15T08:03:56.806Z,22.88
2023-02-15T08:08:58.496Z,20.77
2023-02-15T08:14:23.051Z,19.52
2023-02-15T08:19:29.921Z,17.85
2023-02-15T08:24:34.113Z,20.83
2023-02-15T08:29:37.282Z,18.23
2023-02-15T08:34:41.782Z,15.77
2023-02-15T08:39:44.409Z,16.73
2023-02-15T08:44:46.016Z,16.10
2023-02-15T08:49:47.701Z,17.15
2023-02-15T08:54:49.282Z,18.25
2023-02-15T08:59:51.957Z,16.90
2023-02-15T09:04:53.760Z,13.10
2023-02-15T09:09:55.541Z,11.73
2023-02-15T09:14:57.143Z,16.70
2023-02-15T09:19:58.793Z,18.75
2023-02-15T09:25:00.633Z,15.40
2023-02-15T09:30:02.313Z,14.85
2023-02-15T09:35:04.073Z,12.02
2023-02-15T09:40:06.364Z,12.63
2023-02-15T09:45:24.797Z,14.80
2023-02-15T09:50:36.760Z,14.35
2023-02-15T09:55:52.536Z,17.30
2023-02-15T10:01:12.524Z,15.32
2023-02-15T10:06:33.817Z,14.00
2023-02-15T10:11:50.092Z,16.15
2023-02-15T10:17:13.987Z,18.65
2023-02-15T10:22:24.894Z,20.55
2023-02-15T10:27:27.455Z,18.95
2023-02-15T10:32:31.896Z,23.38
2023-02-15T10:38:03.463Z,20.83
2023-02-15T10:43:21.635Z,21.52
2023-02-15T10:48:48.043Z,22.13
2023-02-15T10:53:52.736Z,17.52
2023-02-15T10:59:09.471Z,22.50
2023-02-15T11:04:11.017Z,20.45
2023-02-15T11:09:14.314Z,20.20
2023-02-15T11:14:21.741Z,16.33
2023-02-15T11:19:27.557Z,23.05
2023-02-15T11:24:31.246Z,20.25
2023-02-15T11:29:41.002Z,18.52
2023-02-15T11:34:51.693Z,16.73
2023-02-15T11:39:55.702Z,20.45
2023-02-15T11:45:19.522Z,16.73
2023-02-15T11:50:27.168Z,15.48
2023-02-15T11:55:32.197Z,18.92
2023-02-15T12:00:41.237Z,17.20
2023-02-15T12:05:46.063Z,20.40
2023-02-15T12:10:59.286Z,17.50
2023-02-15T12:21:11.109Z,17.73
2023-02-15T12:26:12.803Z,16.80
2023-02-15T12:31:27.482Z,16.08
2023-02-15T12:36:45.509Z,16.17
2023-02-15T12:42:16.854Z,15.77
2023-02-15T12:47:20.337Z,16.02
2023-02-15T12:52:21.893Z,18.77
2023-02-15T12:57:33.747Z,16.25
2023-02-15T13:02:41.541Z,17.20
2023-02-15T13:07:51.632Z,21.58
2023-02-15T13:12:55.301Z,27.55
2023-02-15T13:17:58.926Z,21.40
2023-02-15T13:23:07.352Z,19.67
2023-02-15T13:28:14.926Z,18.15
2023-02-15T13:33:27.755Z,23.85
2023-02-15T13:38:44.478Z,19.13
2023-02-15T13:43:52.385Z,20.02
2023-02-15T13:49:00.082Z,17.73
2023-02-15T13:54:38.616Z,20.30
2023-02-15T13:59:44.339Z,21.05
2023-02-15T14:04:51.823Z,19.80
2023-02-15T14:10:12.199Z,22.20
2023-02-15T14:15:35.333Z,20.73
2023-02-15T14:20:51.111Z,22.67
2023-02-15T14:25:57.037Z,19.98
2023-02-15T14:30:59.402Z,19.48
2023-02-15T14:36:02.925Z,30.98
2023-02-15T14:41:16.535Z,24.63
2023-02-15T14:46:33.868Z,27.33
2023-02-15T14:51:44.694Z,26.88
2023-02-15T14:56:47.349Z,23.60
2023-02-15T15:01:58.898Z,27.38
2023-02-15T15:07:22.633Z,25.92
2023-02-15T15:12:27.291Z,24.08
2023-02-15T15:17:35.010Z,37.58
2023-02-15T15:22:37.158Z,28.75
2023-02-15T15:27:51.176Z,28.90
2023-02-15T15:32:55.964Z,28.17
2023-02-15T15:37:57.564Z,28.45
2023-02-15T15:43:14.405Z,29.55
2023-02-15T15:48:28.575Z,33.28
2023-02-15T15:53:34.581Z,34.97
2023-02-15T15:58:36.288Z,28.27
2023-02-15T16:03:38.104Z,29.90
2023-02-15T16:08:40.895Z,31.23
2023-02-15T16:13:43.662Z,33.75
2023-02-15T16:18:45.566Z,33.97
2023-02-15T16:24:14.901Z,45.13
2023-02-15T16:29:18.413Z,38.97
2023-02-15T16:34:20.167Z,36.75
2023-02-15T16:39:21.873Z,33.80
2023-02-15T16:44:23.588Z,31.65
2023-02-15T16:49:29.464Z,33.38
2023-02-15T16:54:32.392Z,31.85
2023-02-15T16:59:40.800Z,36.40
2023-02-15T17:04:43.271Z,31.65
2023-02-15T17:09:53.377Z,40.53
2023-02-15T17:14:55.811Z,32.03
2023-02-15T17:19:57.541Z,32.47
2023-02-15T17:25:01.746Z,34.53
2023-02-15T17:30:30.959Z,33.97
2023-02-15T17:35:33.423Z,38.50
2023-02-15T17:40:36.976Z,39.42
2023-02-15T17:45:47.626Z,36.97
2023-02-15T17:50:49.585Z,40.53
2023-02-15T17:55:51.672Z,35.50
2023-02-15T18:01:15.150Z,46.53
2023-02-15T18:06:35.477Z,36.60
2023-02-15T18:11:38.028Z,37.35
2023-02-15T18:16:43.257Z,42.42
2023-02-15T18:21:46.374Z,42.03
2023-02-15T18:26:48.466Z,36.30
2023-02-15T18:31:53.426Z,45.90
2023-02-15T18:36:56.568Z,42.35
2023-02-15T18:41:58.266Z,36.20
2023-02-15T18:46:59.913Z,37.75
2023-02-15T18:52:01.959Z,32.17
2023-02-15T18:57:03.924Z,42.03
2023-02-15T19:02:15.455Z,40.15
2023-02-15T19:07:22.822Z,46.40
2023-02-15T19:17:26.179Z,40.08
2023-02-15T19:22:29.855Z,41.55
2023-02-15T19:27:35.763Z,45.13
2023-02-15T19:32:37.391Z,44.10
2023-02-15T19:37:42.542Z,43.63
2023-02-15T19:42:44.356Z,45.38
2023-02-15T19:47:48.154Z,38.08
2023-02-15T19:52:50.339Z,42.95
2023-02-15T19:57:52.732Z,39.85
2023-02-15T20:02:56.728Z,40.78
2023-02-15T20:07:58.622Z,41.25
2023-02-15T20:13:00.551Z,43.55
2023-02-15T20:18:04.100Z,40.67
2023-02-15T20:23:07.464Z,43.45
2023-02-15T20:28:15.560Z,42.22
2023-02-15T20:33:18.521Z,39.00
2023-02-15T20:38:27.036Z,40.72
2023-02-15T20:43:28.756Z,42.58
2023-02-15T20:48:30.578Z,44.80
2023-02-15T20:53:32.501Z,42.30
2023-02-15T20:58:34.657Z,43.45
2023-02-15T21:03:36.333Z,38.25
2023-02-15T21:08:38.019Z,46.05
2023-02-15T21:13:40.137Z,40.95
2023-02-15T21:18:46.489Z,41.13
2023-02-15T21:23:48.586Z,42.30
2023-02-15T21:28:50.497Z,44.15
2023-02-15T21:33:52.460Z,36.47
2023-02-15T21:38:54.162Z,40.80
2023-02-15T21:44:14.449Z,40.78
2023-02-15T21:49:16.198Z,38.88
2023-02-15T21:54:19.597Z,38.85
2023-02-15T21:59:21.255Z,34.67
2023-02-15T22:04:28.641Z,41.28
2023-02-15T22:09:30.977Z,36.25
2023-02-15T22:14:40.704Z,34.75
2023-02-15T22:19:43.117Z,40.65
2023-02-15T22:24:45.449Z,39.03
2023-02-15T22:29:47.114Z,43.13
2023-02-15T22:34:49.305Z,34.30
2023-02-15T22:39:50.941Z,40.70
2023-02-15T22:44:56.394Z,33.22
2023-02-15T22:49:58.114Z,35.72
2023-02-15T22:54:59.724Z,34.72
2023-02-15T23:00:01.601Z,38.45
2023-02-15T23:05:03.261Z,34.50
2023-02-15T23:10:05.391Z,37.33
2023-02-15T23:15:11.018Z,39.00
2023-02-15T23:20:15.639Z,34.00
2023-02-15T23:25:19.572Z,35.78
2023-02-15T23:30:21.359Z,34.92
2023-02-15T23:35:23.056Z,36.72
2023-02-15T23:40:43.392Z,32.65
2023-02-15T23:45:45.117Z,35.53
2023-02-15T23:50:46.858Z,34.42
2023-02-15T23:55:48.557Z,31.48
